sensor_id;sensor_type;location;lat;lon;timestamp;temperature;humidity
46976;DHT22;32724;51.094;6.996;2023-02-10T00:00:24;1.60;99.90
46976;DHT22;32724;51.094;6.996;2023-02-10T00:02:49;1.70;99.90
46976;DHT22;32724;51.094;6.996;2023-02-10T00:05:15;1.80;99.90
46976;DHT22;32724;51.094;6.996;2023-02-10T00:07:40;1.80;99.90
46976;DHT22;32724;51.094;6.996;2023-02-10T00:10:06;1.80;99.90
46976;DHT22;32724;51.094;6.996;2023-02-10T00:12:31;1.80;99.90
46976;DHT22;32724;51.094;6.996;2023-02-10T00:14:57;1.80;99.90
46976;DHT22;32724;51.094;6.996;2023-02-10T00:17:22;1.70;99.90
46976;DHT22;32724;51.094;6.996;2023-02-10T00:19:48;1.80;99.90
46976;DHT22;32724;51.094;6.996;2023-02-10T00:22:13;1.80;99.90
46976;DHT22;32724;51.094;6.996;2023-02-10T00:24:39;2.30;99.90
46976;DHT22;32724;51.094;6.996;2023-02-10T00:27:04;2.00;99.90
46976;DHT22;32724;51.094;6.996;2023-02-10T00:29:30;1.90;99.90
46976;DHT22;32724;51.094;6.996;2023-02-10T00:31:57;1.90;99.90
46976;DHT22;32724;51.094;6.996;2023-02-10T00:34:22;1.90;99.90
46976;DHT22;32724;51.094;6.996;2023-02-10T00:36:48;1.90;99.90
46976;DHT22;32724;51.094;6.996;2023-02-10T00:39:15;1.90;99.90
46976;DHT22;32724;51.094;6.996;2023-02-10T00:41:40;1.90;99.90
46976;DHT22;32724;51.094;6.996;2023-02-10T00:44:06;2.00;99.90
46976;DHT22;32724;51.094;6.996;2023-02-10T00:46:31;2.00;99.90
46976;DHT22;32724;51.094;6.996;2023-02-10T00:48:57;2.00;99.90
46976;DHT22;32724;51.094;6.996;2023-02-10T00:51:22;2.00;99.90
46976;DHT22;32724;51.094;6.996;2023-02-10T00:53:48;2.00;99.90
46976;DHT22;32724;51.094;6.996;2023-02-10T00:56:17;2.10;99.90
46976;DHT22;32724;51.094;6.996;2023-02-10T00:58:43;2.10;99.90
46976;DHT22;32724;51.094;6.996;2023-02-10T01:01:09;2.10;99.90
46976;DHT22;32724;51.094;6.996;2023-02-10T01:03:34;2.10;99.90
46976;DHT22;32724;51.094;6.996;2023-02-10T01:06:00;2.00;99.90
46976;DHT22;32724;51.094;6.996;2023-02-10T01:08:25;2.00;99.90
46976;DHT22;32724;51.094;6.996;2023-02-10T01:11:01;2.00;99.90
46976;DHT22;32724;51.094;6.996;2023-02-10T01:13:27;1.90;99.90
46976;DHT22;32724;51.094;6.996;2023-02-10T01:15:53;2.00;99.90
46976;DHT22;32724;51.094;6.996;2023-02-10T01:18:18;2.10;99.90
46976;DHT22;32724;51.094;6.996;2023-02-10T01:20:44;2.20;99.90
46976;DHT22;32724;51.094;6.996;2023-02-10T01:23:09;2.10;99.90
46976;DHT22;32724;51.094;6.996;2023-02-10T01:25:36;2.20;99.90
46976;DHT22;32724;51.094;6.996;2023-02-10T01:28:02;2.10;99.90
46976;DHT22;32724;51.094;6.996;2023-02-10T01:30:28;2.20;99.90
46976;DHT22;32724;51.094;6.996;2023-02-10T01:32:55;2.10;99.90
46976;DHT22;32724;51.094;6.996;2023-02-10T01:35:21;1.90;99.90
46976;DHT22;32724;51.094;6.996;2023-02-10T01:37:46;1.80;99.90
46976;DHT22;32724;51.094;6.996;2023-02-10T01:40:12;1.60;99.90
46976;DHT22;32724;51.094;6.996;2023-02-10T01:42:38;1.40;99.90
46976;DHT22;32724;51.094;6.996;2023-02-10T01:47:33;1.70;99.90
46976;DHT22;32724;51.094;6.996;2023-02-10T01:49:58;1.80;99.90
46976;DHT22;32724;51.094;6.996;2023-02-10T01:52:24;1.80;99.90
46976;DHT22;32724;51.094;6.996;2023-02-10T01:54:54;1.90;99.90
46976;DHT22;32724;51.094;6.996;2023-02-10T01:57:21;1.90;99.90
46976;DHT22;32724;51.094;6.996;2023-02-10T01:59:47;2.00;99.90
46976;DHT22;32724;51.094;6.996;2023-02-10T02:02:13;2.00;99.90
46976;DHT22;32724;51.094;6.996;2023-02-10T02:07:08;2.00;99.90
46976;DHT22;32724;51.094;6.996;2023-02-10T02:09:34;2.00;99.90
46976;DHT22;32724;51.094;6.996;2023-02-10T02:12:16;2.10;99.90
46976;DHT22;32724;51.094;6.996;2023-02-10T02:14:57;2.10;99.90
46976;DHT22;32724;51.094;6.996;2023-02-10T02:20:16;2.20;99.90
46976;DHT22;32724;51.094;6.996;2023-02-10T02:28:39;2.10;99.90
46976;DHT22;32724;51.094;6.996;2023-02-10T02:31:23;2.20;99.90
46976;DHT22;32724;51.094;6.996;2023-02-10T02:33:51;2.20;99.90
46976;DHT22;32724;51.094;6.996;2023-02-10T02:36:20;2.20;99.90
46976;DHT22;32724;51.094;6.996;2023-02-10T02:38:48;2.20;99.90
46976;DHT22;32724;51.094;6.996;2023-02-10T02:41:21;2.20;99.90
46976;DHT22;32724;51.094;6.996;2023-02-10T02:43:47;2.10;99.90
46976;DHT22;32724;51.094;6.996;2023-02-10T02:46:24;2.00;99.90
46976;DHT22;32724;51.094;6.996;2023-02-10T02:48:56;1.90;99.90
46976;DHT22;32724;51.094;6.996;2023-02-10T02:51:32;1.90;99.90
46976;DHT22;32724;51.094;6.996;2023-02-10T02:57:28;1.90;99.90
46976;DHT22;32724;51.094;6.996;2023-02-10T02:59:40;1.90;99.90
46976;DHT22;32724;51.094;6.996;2023-02-10T03:02:09;1.90;99.90
46976;DHT22;32724;51.094;6.996;2023-02-10T03:04:36;1.90;99.90
46976;DHT22;32724;51.094;6.996;2023-02-10T03:07:02;1.90;99.90
46976;DHT22;32724;51.094;6.996;2023-02-10T03:09:27;1.80;99.90
46976;DHT22;32724;51.094;6.996;2023-02-10T03:11:53;1.80;99.90
46976;DHT22;32724;51.094;6.996;2023-02-10T03:14:19;1.80;99.90
46976;DHT22;32724;51.094;6.996;2023-02-10T03:16:44;1.80;99.90
46976;DHT22;32724;51.094;6.996;2023-02-10T03:19:10;1.80;99.90
46976;DHT22;32724;51.094;6.996;2023-02-10T03:21:35;1.90;99.90
46976;DHT22;32724;51.094;6.996;2023-02-10T03:24:01;1.80;99.90
46976;DHT22;32724;51.094;6.996;2023-02-10T03:26:27;1.80;99.90
46976;DHT22;32724;51.094;6.996;2023-02-10T03:28:53;1.80;99.90
46976;DHT22;32724;51.094;6.996;2023-02-10T03:31:18;2.00;99.90
46976;DHT22;32724;51.094;6.996;2023-02-10T03:33:44;1.90;99.90
46976;DHT22;32724;51.094;6.996;2023-02-10T03:36:09;1.80;99.90
46976;DHT22;32724;51.094;6.996;2023-02-10T03:38:35;1.80;99.90
46976;DHT22;32724;51.094;6.996;2023-02-10T03:41:01;1.70;99.90
46976;DHT22;32724;51.094;6.996;2023-02-10T03:43:26;1.60;99.90
46976;DHT22;32724;51.094;6.996;2023-02-10T03:45:52;1.60;99.90
46976;DHT22;32724;51.094;6.996;2023-02-10T03:48:17;1.50;99.90
46976;DHT22;32724;51.094;6.996;2023-02-10T03:50:43;1.40;99.90
46976;DHT22;32724;51.094;6.996;2023-02-10T03:53:08;1.30;99.90
46976;DHT22;32724;51.094;6.996;2023-02-10T03:55:34;1.30;99.90
46976;DHT22;32724;51.094;6.996;2023-02-10T03:58:00;1.20;99.90
46976;DHT22;32724;51.094;6.996;2023-02-10T04:00:26;1.20;99.90
46976;DHT22;32724;51.094;6.996;2023-02-10T04:02:51;1.20;99.90
46976;DHT22;32724;51.094;6.996;2023-02-10T04:05:17;1.20;99.90
46976;DHT22;32724;51.094;6.996;2023-02-10T04:07:42;1.10;99.90
46976;DHT22;32724;51.094;6.996;2023-02-10T04:10:08;1.00;99.90
46976;DHT22;32724;51.094;6.996;2023-02-10T04:12:34;1.00;99.90
46976;DHT22;32724;51.094;6.996;2023-02-10T04:14:59;0.90;99.90
46976;DHT22;32724;51.094;6.996;2023-02-10T04:17:24;0.80;99.90
46976;DHT22;32724;51.094;6.996;2023-02-10T04:19:50;0.80;99.90
46976;DHT22;32724;51.094;6.996;2023-02-10T04:22:16;0.70;99.90
46976;DHT22;32724;51.094;6.996;2023-02-10T04:24:41;0.70;99.90
46976;DHT22;32724;51.094;6.996;2023-02-10T04:27:06;0.70;99.90
46976;DHT22;32724;51.094;6.996;2023-02-10T04:29:32;0.70;99.90
46976;DHT22;32724;51.094;6.996;2023-02-10T04:31:59;0.80;99.90
46976;DHT22;32724;51.094;6.996;2023-02-10T04:34:24;0.80;99.90
46976;DHT22;32724;51.094;6.996;2023-02-10T04:36:50;0.60;99.90
46976;DHT22;32724;51.094;6.996;2023-02-10T04:39:15;0.50;99.90
46976;DHT22;32724;51.094;6.996;2023-02-10T04:41:41;0.40;99.90
46976;DHT22;32724;51.094;6.996;2023-02-10T04:44:06;0.40;99.90
46976;DHT22;32724;51.094;6.996;2023-02-10T04:46:50;0.30;99.90
46976;DHT22;32724;51.094;6.996;2023-02-10T04:49:16;0.10;99.90
46976;DHT22;32724;51.094;6.996;2023-02-10T04:51:42;0.00;99.90
46976;DHT22;32724;51.094;6.996;2023-02-10T04:54:07;-0.10;99.90
46976;DHT22;32724;51.094;6.996;2023-02-10T04:56:33;-0.20;99.90
46976;DHT22;32724;51.094;6.996;2023-02-10T04:59:07;-0.20;99.90
46976;DHT22;32724;51.094;6.996;2023-02-10T05:01:33;-0.30;99.90
46976;DHT22;32724;51.094;6.996;2023-02-10T05:03:58;-0.40;99.90
46976;DHT22;32724;51.094;6.996;2023-02-10T05:06:24;-0.50;99.90
46976;DHT22;32724;51.094;6.996;2023-02-10T05:08:49;-0.50;99.90
46976;DHT22;32724;51.094;6.996;2023-02-10T05:11:15;-0.50;99.90
46976;DHT22;32724;51.094;6.996;2023-02-10T05:13:41;-0.60;99.90
46976;DHT22;32724;51.094;6.996;2023-02-10T05:16:07;-0.60;99.90
46976;DHT22;32724;51.094;6.996;2023-02-10T05:18:33;-0.60;99.90
46976;DHT22;32724;51.094;6.996;2023-02-10T05:21:00;-0.70;99.90
46976;DHT22;32724;51.094;6.996;2023-02-10T05:23:26;-0.70;99.90
46976;DHT22;32724;51.094;6.996;2023-02-10T05:25:51;-0.40;99.90
46976;DHT22;32724;51.094;6.996;2023-02-10T05:28:17;-0.30;99.90
46976;DHT22;32724;51.094;6.996;2023-02-10T05:30:42;-0.30;99.90
46976;DHT22;32724;51.094;6.996;2023-02-10T05:33:08;-0.50;99.90
46976;DHT22;32724;51.094;6.996;2023-02-10T05:35:33;-0.50;99.90
46976;DHT22;32724;51.094;6.996;2023-02-10T05:37:59;-0.70;99.90
46976;DHT22;32724;51.094;6.996;2023-02-10T05:40:27;-0.80;99.90
46976;DHT22;32724;51.094;6.996;2023-02-10T05:42:53;-0.80;99.90
46976;DHT22;32724;51.094;6.996;2023-02-10T05:45:18;-0.90;99.90
46976;DHT22;32724;51.094;6.996;2023-02-10T05:47:44;-1.00;99.90
46976;DHT22;32724;51.094;6.996;2023-02-10T05:50:09;-1.00;99.90
46976;DHT22;32724;51.094;6.996;2023-02-10T05:52:35;-1.10;99.90
46976;DHT22;32724;51.094;6.996;2023-02-10T05:55:00;-1.10;99.90
46976;DHT22;32724;51.094;6.996;2023-02-10T05:57:26;-1.20;99.90
46976;DHT22;32724;51.094;6.996;2023-02-10T05:59:51;-1.20;99.90
46976;DHT22;32724;51.094;6.996;2023-02-10T06:02:17;-1.20;99.90
46976;DHT22;32724;51.094;6.996;2023-02-10T06:04:42;-1.20;99.90
46976;DHT22;32724;51.094;6.996;2023-02-10T06:07:08;-1.30;99.90
46976;DHT22;32724;51.094;6.996;2023-02-10T06:09:33;-1.30;99.90
46976;DHT22;32724;51.094;6.996;2023-02-10T06:11:59;-1.30;99.90
46976;DHT22;32724;51.094;6.996;2023-02-10T06:14:24;-1.30;99.90
46976;DHT22;32724;51.094;6.996;2023-02-10T06:16:50;-1.40;99.90
46976;DHT22;32724;51.094;6.996;2023-02-10T06:19:15;-1.40;99.90
46976;DHT22;32724;51.094;6.996;2023-02-10T06:21:40;-1.30;99.90
46976;DHT22;32724;51.094;6.996;2023-02-10T06:24:06;-0.90;99.90
46976;DHT22;32724;51.094;6.996;2023-02-10T06:26:31;-0.90;99.90
46976;DHT22;32724;51.094;6.996;2023-02-10T06:28:57;-0.90;99.90
46976;DHT22;32724;51.094;6.996;2023-02-10T06:31:23;-0.90;99.90
46976;DHT22;32724;51.094;6.996;2023-02-10T06:33:50;-0.90;99.90
46976;DHT22;32724;51.094;6.996;2023-02-10T06:36:15;-1.10;99.90
46976;DHT22;32724;51.094;6.996;2023-02-10T06:38:41;-1.10;99.90
46976;DHT22;32724;51.094;6.996;2023-02-10T06:41:07;-1.10;99.90
46976;DHT22;32724;51.094;6.996;2023-02-10T06:43:32;-1.20;99.90
46976;DHT22;32724;51.094;6.996;2023-02-10T06:45:58;-1.30;99.90
46976;DHT22;32724;51.094;6.996;2023-02-10T06:48:23;-1.30;99.90
46976;DHT22;32724;51.094;6.996;2023-02-10T06:50:49;-1.30;99.90
46976;DHT22;32724;51.094;6.996;2023-02-10T06:53:14;-1.30;99.90
46976;DHT22;32724;51.094;6.996;2023-02-10T06:55:40;-1.40;99.90
46976;DHT22;32724;51.094;6.996;2023-02-10T06:58:05;-1.30;99.90
46976;DHT22;32724;51.094;6.996;2023-02-10T07:00:31;-1.30;99.90
46976;DHT22;32724;51.094;6.996;2023-02-10T07:02:59;-1.20;99.90
46976;DHT22;32724;51.094;6.996;2023-02-10T07:05:25;-1.10;99.90
46976;DHT22;32724;51.094;6.996;2023-02-10T07:07:50;-1.00;99.90
46976;DHT22;32724;51.094;6.996;2023-02-10T07:10:16;-0.80;99.90
46976;DHT22;32724;51.094;6.996;2023-02-10T07:12:42;-0.70;99.90
46976;DHT22;32724;51.094;6.996;2023-02-10T07:15:08;-0.60;99.90
46976;DHT22;32724;51.094;6.996;2023-02-10T07:17:33;-0.50;99.90
46976;DHT22;32724;51.094;6.996;2023-02-10T07:20:01;-0.30;99.90
46976;DHT22;32724;51.094;6.996;2023-02-10T07:22:26;0.00;99.90
46976;DHT22;32724;51.094;6.996;2023-02-10T07:24:52;-0.10;99.90
46976;DHT22;32724;51.094;6.996;2023-02-10T07:27:17;-0.10;99.90
46976;DHT22;32724;51.094;6.996;2023-02-10T07:29:42;-0.20;99.90
46976;DHT22;32724;51.094;6.996;2023-02-10T07:32:08;-0.20;99.90
46976;DHT22;32724;51.094;6.996;2023-02-10T07:34:33;-0.20;99.90
46976;DHT22;32724;51.094;6.996;2023-02-10T07:37:00;-0.20;99.90
46976;DHT22;32724;51.094;6.996;2023-02-10T07:39:26;-0.20;99.90
46976;DHT22;32724;51.094;6.996;2023-02-10T07:41:52;-0.20;99.90
46976;DHT22;32724;51.094;6.996;2023-02-10T07:44:17;-0.10;99.90
46976;DHT22;32724;51.094;6.996;2023-02-10T07:46:44;0.00;99.90
46976;DHT22;32724;51.094;6.996;2023-02-10T07:49:09;0.10;99.90
46976;DHT22;32724;51.094;6.996;2023-02-10T07:51:35;0.20;99.90
46976;DHT22;32724;51.094;6.996;2023-02-10T07:54:01;0.30;99.90
46976;DHT22;32724;51.094;6.996;2023-02-10T07:56:26;0.40;99.90
46976;DHT22;32724;51.094;6.996;2023-02-10T07:58:51;0.40;99.90
46976;DHT22;32724;51.094;6.996;2023-02-10T08:01:17;0.50;99.90
46976;DHT22;32724;51.094;6.996;2023-02-10T08:03:42;0.50;99.90
46976;DHT22;32724;51.094;6.996;2023-02-10T08:06:08;0.50;99.90
46976;DHT22;32724;51.094;6.996;2023-02-10T08:08:33;0.60;99.90
46976;DHT22;32724;51.094;6.996;2023-02-10T08:10:59;0.60;99.90
46976;DHT22;32724;51.094;6.996;2023-02-10T08:13:24;0.60;99.90
46976;DHT22;32724;51.094;6.996;2023-02-10T08:15:50;0.60;99.90
46976;DHT22;32724;51.094;6.996;2023-02-10T08:18:16;0.60;99.90
46976;DHT22;32724;51.094;6.996;2023-02-10T08:20:41;0.60;99.90
46976;DHT22;32724;51.094;6.996;2023-02-10T08:23:07;0.70;99.90
46976;DHT22;32724;51.094;6.996;2023-02-10T08:25:34;0.70;99.90
46976;DHT22;32724;51.094;6.996;2023-02-10T08:27:59;0.70;99.90
46976;DHT22;32724;51.094;6.996;2023-02-10T08:30:25;0.80;99.90
46976;DHT22;32724;51.094;6.996;2023-02-10T08:32:51;0.90;99.90
46976;DHT22;32724;51.094;6.996;2023-02-10T08:35:16;1.00;99.90
46976;DHT22;32724;51.094;6.996;2023-02-10T08:37:42;1.20;99.90
46976;DHT22;32724;51.094;6.996;2023-02-10T08:40:08;1.70;99.90
46976;DHT22;32724;51.094;6.996;2023-02-10T08:42:33;1.50;99.90
46976;DHT22;32724;51.094;6.996;2023-02-10T08:44:59;1.50;99.90
46976;DHT22;32724;51.094;6.996;2023-02-10T08:47:25;1.50;99.90
46976;DHT22;32724;51.094;6.996;2023-02-10T08:49:50;1.60;99.90
46976;DHT22;32724;51.094;6.996;2023-02-10T08:52:15;1.70;99.90
46976;DHT22;32724;51.094;6.996;2023-02-10T08:54:41;1.70;99.90
46976;DHT22;32724;51.094;6.996;2023-02-10T08:57:07;1.70;99.90
46976;DHT22;32724;51.094;6.996;2023-02-10T08:59:33;1.70;99.90
46976;DHT22;32724;51.094;6.996;2023-02-10T09:01:58;1.80;99.90
46976;DHT22;32724;51.094;6.996;2023-02-10T09:04:24;1.80;99.90
46976;DHT22;32724;51.094;6.996;2023-02-10T09:06:49;1.80;99.90
46976;DHT22;32724;51.094;6.996;2023-02-10T09:09:16;1.80;99.90
46976;DHT22;32724;51.094;6.996;2023-02-10T09:11:42;1.90;99.90
46976;DHT22;32724;51.094;6.996;2023-02-10T09:14:08;1.90;99.90
46976;DHT22;32724;51.094;6.996;2023-02-10T09:16:34;2.00;99.90
46976;DHT22;32724;51.094;6.996;2023-02-10T09:19:00;2.00;99.90
46976;DHT22;32724;51.094;6.996;2023-02-10T09:21:25;2.00;99.90
46976;DHT22;32724;51.094;6.996;2023-02-10T09:23:51;2.00;99.90
46976;DHT22;32724;51.094;6.996;2023-02-10T09:26:16;2.10;99.90
46976;DHT22;32724;51.094;6.996;2023-02-10T09:28:42;2.20;99.90
46976;DHT22;32724;51.094;6.996;2023-02-10T09:31:08;2.30;99.90
46976;DHT22;32724;51.094;6.996;2023-02-10T09:33:33;2.40;99.90
46976;DHT22;32724;51.094;6.996;2023-02-10T09:36:01;2.60;99.90
46976;DHT22;32724;51.094;6.996;2023-02-10T09:38:26;2.80;99.90
46976;DHT22;32724;51.094;6.996;2023-02-10T09:46:24;3.30;99.90
46976;DHT22;32724;51.094;6.996;2023-02-10T09:51:55;3.70;99.90
46976;DHT22;32724;51.094;6.996;2023-02-10T09:54:24;3.70;99.90
46976;DHT22;32724;51.094;6.996;2023-02-10T09:56:54;3.70;99.90
46976;DHT22;32724;51.094;6.996;2023-02-10T09:59:20;3.70;99.90
46976;DHT22;32724;51.094;6.996;2023-02-10T10:01:51;3.70;99.90
46976;DHT22;32724;51.094;6.996;2023-02-10T10:04:18;3.70;99.90
46976;DHT22;32724;51.094;6.996;2023-02-10T10:06:46;3.60;99.90
46976;DHT22;32724;51.094;6.996;2023-02-10T10:09:18;3.70;99.90
46976;DHT22;32724;51.094;6.996;2023-02-10T10:11:47;3.80;99.90
46976;DHT22;32724;51.094;6.996;2023-02-10T10:14:15;3.90;99.90
46976;DHT22;32724;51.094;6.996;2023-02-10T10:24:18;4.00;99.90
46976;DHT22;32724;51.094;6.996;2023-02-10T10:29:37;4.20;99.90
46976;DHT22;32724;51.094;6.996;2023-02-10T10:32:14;4.30;99.90
46976;DHT22;32724;51.094;6.996;2023-02-10T10:34:49;4.40;99.90
46976;DHT22;32724;51.094;6.996;2023-02-10T10:37:18;4.50;99.90
46976;DHT22;32724;51.094;6.996;2023-02-10T10:39:44;4.50;99.90
46976;DHT22;32724;51.094;6.996;2023-02-10T10:42:21;4.50;99.90
46976;DHT22;32724;51.094;6.996;2023-02-10T10:44:48;4.50;99.90
46976;DHT22;32724;51.094;6.996;2023-02-10T10:47:15;4.60;99.90
46976;DHT22;32724;51.094;6.996;2023-02-10T10:49:42;4.50;99.90
46976;DHT22;32724;51.094;6.996;2023-02-10T10:52:17;4.70;99.90
46976;DHT22;32724;51.094;6.996;2023-02-10T10:54:44;4.80;99.90
46976;DHT22;32724;51.094;6.996;2023-02-10T10:57:10;4.80;99.90
46976;DHT22;32724;51.094;6.996;2023-02-10T10:59:39;4.90;99.90
46976;DHT22;32724;51.094;6.996;2023-02-10T11:02:11;5.00;99.90
46976;DHT22;32724;51.094;6.996;2023-02-10T11:04:37;5.00;99.90
46976;DHT22;32724;51.094;6.996;2023-02-10T11:07:08;5.00;99.90
46976;DHT22;32724;51.094;6.996;2023-02-10T11:09:40;5.10;99.90
46976;DHT22;32724;51.094;6.996;2023-02-10T11:12:16;5.20;99.90
46976;DHT22;32724;51.094;6.996;2023-02-10T11:14:45;5.30;99.90
46976;DHT22;32724;51.094;6.996;2023-02-10T11:19:58;5.30;99.90
46976;DHT22;32724;51.094;6.996;2023-02-10T11:22:23;5.40;99.90
46976;DHT22;32724;51.094;6.996;2023-02-10T11:25:21;5.50;99.90
46976;DHT22;32724;51.094;6.996;2023-02-10T11:27:37;5.60;99.90
46976;DHT22;32724;51.094;6.996;2023-02-10T11:30:03;5.60;99.90
46976;DHT22;32724;51.094;6.996;2023-02-10T11:32:29;5.60;99.90
46976;DHT22;32724;51.094;6.996;2023-02-10T11:34:57;5.80;99.90
46976;DHT22;32724;51.094;6.996;2023-02-10T11:37:31;6.10;99.90
46976;DHT22;32724;51.094;6.996;2023-02-10T11:39:57;6.30;99.90
46976;DHT22;32724;51.094;6.996;2023-02-10T11:42:25;6.20;99.90
46976;DHT22;32724;51.094;6.996;2023-02-10T11:45:01;6.20;99.90
46976;DHT22;32724;51.094;6.996;2023-02-10T11:47:28;6.20;99.90
46976;DHT22;32724;51.094;6.996;2023-02-10T11:49:53;6.20;99.90
46976;DHT22;32724;51.094;6.996;2023-02-10T11:52:20;6.30;99.90
46976;DHT22;32724;51.094;6.996;2023-02-10T11:54:48;6.10;99.90
46976;DHT22;32724;51.094;6.996;2023-02-10T11:57:32;6.00;99.90
46976;DHT22;32724;51.094;6.996;2023-02-10T12:05:50;6.10;99.90
46976;DHT22;32724;51.094;6.996;2023-02-10T12:08:37;6.60;99.90
46976;DHT22;32724;51.094;6.996;2023-02-10T12:11:18;6.90;99.90
46976;DHT22;32724;51.094;6.996;2023-02-10T12:18:50;7.10;99.90
46976;DHT22;32724;51.094;6.996;2023-02-10T12:24:06;7.40;99.90
46976;DHT22;32724;51.094;6.996;2023-02-10T12:37:02;7.60;99.90
46976;DHT22;32724;51.094;6.996;2023-02-10T12:47:38;7.00;99.90
46976;DHT22;32724;51.094;6.996;2023-02-10T12:52:45;7.30;99.90
46976;DHT22;32724;51.094;6.996;2023-02-10T12:55:18;7.70;99.90
46976;DHT22;32724;51.094;6.996;2023-02-10T13:02:46;8.60;99.90
46976;DHT22;32724;51.094;6.996;2023-02-10T13:05:22;8.90;99.90
46976;DHT22;32724;51.094;6.996;2023-02-10T13:10:18;8.90;99.90
46976;DHT22;32724;51.094;6.996;2023-02-10T13:12:46;8.80;99.90
46976;DHT22;32724;51.094;6.996;2023-02-10T13:15:14;8.80;99.90
46976;DHT22;32724;51.094;6.996;2023-02-10T13:17:44;8.70;99.90
46976;DHT22;32724;51.094;6.996;2023-02-10T13:20:24;8.70;99.90
46976;DHT22;32724;51.094;6.996;2023-02-10T13:25:49;8.80;99.90
46976;DHT22;32724;51.094;6.996;2023-02-10T13:29:02;8.80;99.90
46976;DHT22;32724;51.094;6.996;2023-02-10T13:31:05;8.70;99.90
46976;DHT22;32724;51.094;6.996;2023-02-10T13:36:04;9.00;99.90
46976;DHT22;32724;51.094;6.996;2023-02-10T13:38:31;9.00;99.90
46976;DHT22;32724;51.094;6.996;2023-02-10T13:40:58;8.90;99.90
46976;DHT22;32724;51.094;6.996;2023-02-10T13:43:45;8.90;99.90
46976;DHT22;32724;51.094;6.996;2023-02-10T13:46:19;8.80;99.90
46976;DHT22;32724;51.094;6.996;2023-02-10T13:48:50;8.80;99.90
46976;DHT22;32724;51.094;6.996;2023-02-10T13:51:16;8.80;99.90
46976;DHT22;32724;51.094;6.996;2023-02-10T13:53:41;8.80;99.90
46976;DHT22;32724;51.094;6.996;2023-02-10T13:56:13;8.70;99.90
46976;DHT22;32724;51.094;6.996;2023-02-10T13:58:49;8.60;99.90
46976;DHT22;32724;51.094;6.996;2023-02-10T14:01:29;7.90;99.90
46976;DHT22;32724;51.094;6.996;2023-02-10T14:03:55;7.70;99.90
46976;DHT22;32724;51.094;6.996;2023-02-10T14:06:20;7.70;99.90
46976;DHT22;32724;51.094;6.996;2023-02-10T14:09:01;7.70;99.90
46976;DHT22;32724;51.094;6.996;2023-02-10T14:12:01;7.70;99.90
46976;DHT22;32724;51.094;6.996;2023-02-10T14:14:28;7.90;99.90
46976;DHT22;32724;51.094;6.996;2023-02-10T14:17:04;8.10;99.90
46976;DHT22;32724;51.094;6.996;2023-02-10T14:19:31;8.40;99.90
46976;DHT22;32724;51.094;6.996;2023-02-10T14:21:57;8.60;99.90
46976;DHT22;32724;51.094;6.996;2023-02-10T14:24:27;8.60;99.90
46976;DHT22;32724;51.094;6.996;2023-02-10T14:26:53;8.60;99.90
46976;DHT22;32724;51.094;6.996;2023-02-10T14:29:20;8.60;99.90
46976;DHT22;32724;51.094;6.996;2023-02-10T14:31:52;8.70;99.90
46976;DHT22;32724;51.094;6.996;2023-02-10T14:34:22;8.70;99.90
46976;DHT22;32724;51.094;6.996;2023-02-10T14:36:51;8.70;99.90
46976;DHT22;32724;51.094;6.996;2023-02-10T14:39:20;8.70;99.90
46976;DHT22;32724;51.094;6.996;2023-02-10T14:41:46;8.70;99.90
46976;DHT22;32724;51.094;6.996;2023-02-10T14:44:18;8.70;99.90
46976;DHT22;32724;51.094;6.996;2023-02-10T14:46:46;8.80;99.90
46976;DHT22;32724;51.094;6.996;2023-02-10T14:49:13;8.90;99.90
46976;DHT22;32724;51.094;6.996;2023-02-10T14:51:42;8.90;99.90
46976;DHT22;32724;51.094;6.996;2023-02-10T14:54:29;8.90;99.90
46976;DHT22;32724;51.094;6.996;2023-02-10T14:56:56;8.90;99.90
46976;DHT22;32724;51.094;6.996;2023-02-10T14:59:29;8.80;99.90
46976;DHT22;32724;51.094;6.996;2023-02-10T15:01:55;8.80;99.90
46976;DHT22;32724;51.094;6.996;2023-02-10T15:04:22;8.80;99.90
46976;DHT22;32724;51.094;6.996;2023-02-10T15:06:52;8.80;99.90
46976;DHT22;32724;51.094;6.996;2023-02-10T15:09:18;8.70;99.90
46976;DHT22;32724;51.094;6.996;2023-02-10T15:11:47;8.70;99.90
46976;DHT22;32724;51.094;6.996;2023-02-10T15:14:33;8.10;99.90
46976;DHT22;32724;51.094;6.996;2023-02-10T15:17:00;7.80;99.90
46976;DHT22;32724;51.094;6.996;2023-02-10T15:19:27;7.70;99.90
46976;DHT22;32724;51.094;6.996;2023-02-10T15:21:53;7.60;99.90
46976;DHT22;32724;51.094;6.996;2023-02-10T15:24:26;7.50;99.90
46976;DHT22;32724;51.094;6.996;2023-02-10T15:26:52;7.40;99.90
46976;DHT22;32724;51.094;6.996;2023-02-10T15:29:18;7.50;99.90
46976;DHT22;32724;51.094;6.996;2023-02-10T15:31:58;7.60;99.90
46976;DHT22;32724;51.094;6.996;2023-02-10T15:34:27;7.70;99.90
46976;DHT22;32724;51.094;6.996;2023-02-10T15:36:58;7.80;99.90
46976;DHT22;32724;51.094;6.996;2023-02-10T15:39:29;7.80;99.90
46976;DHT22;32724;51.094;6.996;2023-02-10T15:46:50;7.80;99.90
46976;DHT22;32724;51.094;6.996;2023-02-10T15:49:57;7.80;99.90
46976;DHT22;32724;51.094;6.996;2023-02-10T15:52:23;7.90;99.90
46976;DHT22;32724;51.094;6.996;2023-02-10T15:54:50;7.90;99.90
46976;DHT22;32724;51.094;6.996;2023-02-10T15:57:16;7.90;99.90
46976;DHT22;32724;51.094;6.996;2023-02-10T15:59:42;7.90;99.90
46976;DHT22;32724;51.094;6.996;2023-02-10T16:02:10;7.90;99.90
46976;DHT22;32724;51.094;6.996;2023-02-10T16:04:36;7.80;99.90
46976;DHT22;32724;51.094;6.996;2023-02-10T16:07:02;7.80;99.90
46976;DHT22;32724;51.094;6.996;2023-02-10T16:09:28;7.70;99.90
46976;DHT22;32724;51.094;6.996;2023-02-10T16:11:55;7.70;99.90
46976;DHT22;32724;51.094;6.996;2023-02-10T16:14:21;7.60;99.90
46976;DHT22;32724;51.094;6.996;2023-02-10T16:16:48;7.50;99.90
46976;DHT22;32724;51.094;6.996;2023-02-10T16:19:17;7.20;99.90
46976;DHT22;32724;51.094;6.996;2023-02-10T16:21:43;6.60;99.90
46976;DHT22;32724;51.094;6.996;2023-02-10T16:24:12;6.00;99.90
46976;DHT22;32724;51.094;6.996;2023-02-10T16:26:38;5.60;99.90
46976;DHT22;32724;51.094;6.996;2023-02-10T16:29:04;5.30;99.90
46976;DHT22;32724;51.094;6.996;2023-02-10T16:31:30;5.10;99.90
46976;DHT22;32724;51.094;6.996;2023-02-10T16:33:57;5.00;99.90
46976;DHT22;32724;51.094;6.996;2023-02-10T16:36:23;5.00;99.90
46976;DHT22;32724;51.094;6.996;2023-02-10T16:38:48;4.90;99.90
46976;DHT22;32724;51.094;6.996;2023-02-10T16:41:14;4.80;99.90
46976;DHT22;32724;51.094;6.996;2023-02-10T16:43:39;4.80;99.90
46976;DHT22;32724;51.094;6.996;2023-02-10T16:46:05;4.80;99.90
46976;DHT22;32724;51.094;6.996;2023-02-10T16:48:33;4.90;99.90
46976;DHT22;32724;51.094;6.996;2023-02-10T16:50:59;5.00;99.90
46976;DHT22;32724;51.094;6.996;2023-02-10T16:53:24;5.10;99.90
46976;DHT22;32724;51.094;6.996;2023-02-10T16:55:49;5.20;99.90
46976;DHT22;32724;51.094;6.996;2023-02-10T16:58:16;5.20;99.90
46976;DHT22;32724;51.094;6.996;2023-02-10T17:00:41;5.20;99.90
46976;DHT22;32724;51.094;6.996;2023-02-10T17:03:07;5.20;99.90
46976;DHT22;32724;51.094;6.996;2023-02-10T17:05:33;5.20;99.90
46976;DHT22;32724;51.094;6.996;2023-02-10T17:07:59;5.20;99.90
46976;DHT22;32724;51.094;6.996;2023-02-10T17:10:26;5.20;99.90
46976;DHT22;32724;51.094;6.996;2023-02-10T17:12:51;5.20;99.90
46976;DHT22;32724;51.094;6.996;2023-02-10T17:15:17;5.10;99.90